sensor_id;sensor_type;location;lat;lon;timestamp;P1;durP1;ratioP1;P2;durP2;ratioP2
11338;SDS011;5724;42.684;23.252;2023-03-31T00:01:38;7.53;;;6.82;;
11338;SDS011;5724;42.684;23.252;2023-03-31T00:04:10;10.00;;;7.30;;
11338;SDS011;5724;42.684;23.252;2023-03-31T00:06:37;14.43;;;7.15;;
11338;SDS011;5724;42.684;23.252;2023-03-31T00:09:14;7.53;;;6.43;;
11338;SDS011;5724;42.684;23.252;2023-03-31T00:11:43;6.68;;;6.07;;
11338;SDS011;5724;42.684;23.252;2023-03-31T00:14:09;11.07;;;6.35;;
11338;SDS011;5724;42.684;23.252;2023-03-31T00:16:35;8.27;;;6.82;;
11338;SDS011;5724;42.684;23.252;2023-03-31T00:19:01;7.10;;;6.38;;
11338;SDS011;5724;42.684;23.252;2023-03-31T00:21:27;7.85;;;7.05;;
11338;SDS011;5724;42.684;23.252;2023-03-31T00:23:57;7.65;;;6.53;;
11338;SDS011;5724;42.684;23.252;2023-03-31T00:26:30;6.85;;;6.13;;
11338;SDS011;5724;42.684;23.252;2023-03-31T00:28:56;7.65;;;6.57;;
11338;SDS011;5724;42.684;23.252;2023-03-31T00:31:22;7.93;;;6.53;;
11338;SDS011;5724;42.684;23.252;2023-03-31T00:33:48;8.97;;;7.17;;
11338;SDS011;5724;42.684;23.252;2023-03-31T00:36:14;8.07;;;7.28;;
11338;SDS011;5724;42.684;23.252;2023-03-31T00:38:51;8.83;;;6.50;;
11338;SDS011;5724;42.684;23.252;2023-03-31T00:41:18;9.13;;;7.10;;
11338;SDS011;5724;42.684;23.252;2023-03-31T00:47:19;9.13;;;6.65;;
11338;SDS011;5724;42.684;23.252;2023-03-31T00:49:40;12.73;;;7.10;;
11338;SDS011;5724;42.684;23.252;2023-03-31T00:52:18;6.80;;;6.00;;
11338;SDS011;5724;42.684;23.252;2023-03-31T00:54:48;8.43;;;6.50;;
11338;SDS011;5724;42.684;23.252;2023-03-31T00:57:18;9.10;;;6.65;;
11338;SDS011;5724;42.684;23.252;2023-03-31T00:59:46;7.50;;;6.47;;
11338;SDS011;5724;42.684;23.252;2023-03-31T01:02:15;8.87;;;7.07;;
11338;SDS011;5724;42.684;23.252;2023-03-31T01:04:48;11.77;;;7.43;;
11338;SDS011;5724;42.684;23.252;2023-03-31T01:09:56;11.43;;;9.50;;
11338;SDS011;5724;42.684;23.252;2023-03-31T01:12:24;9.63;;;7.22;;
11338;SDS011;5724;42.684;23.252;2023-03-31T01:14:51;12.38;;;7.15;;
11338;SDS011;5724;42.684;23.252;2023-03-31T01:17:17;9.35;;;8.05;;
11338;SDS011;5724;42.684;23.252;2023-03-31T01:44:53;13.05;;;8.45;;
11338;SDS011;5724;42.684;23.252;2023-03-31T01:50:15;10.50;;;8.70;;
11338;SDS011;5724;42.684;23.252;2023-03-31T01:53:04;9.85;;;7.90;;
11338;SDS011;5724;42.684;23.252;2023-03-31T01:55:40;12.23;;;8.60;;
11338;SDS011;5724;42.684;23.252;2023-03-31T01:58:12;11.57;;;9.02;;
11338;SDS011;5724;42.684;23.252;2023-03-31T02:00:43;11.95;;;9.02;;
11338;SDS011;5724;42.684;23.252;2023-03-31T02:06:16;12.10;;;8.73;;
11338;SDS011;5724;42.684;23.252;2023-03-31T02:08:50;13.63;;;8.70;;
11338;SDS011;5724;42.684;23.252;2023-03-31T02:11:19;4.50;;;4.07;;
11338;SDS011;5724;42.684;23.252;2023-03-31T02:13:46;3.13;;;2.00;;
11338;SDS011;5724;42.684;23.252;2023-03-31T02:16:18;1.10;;;1.10;;
11338;SDS011;5724;42.684;23.252;2023-03-31T02:18:49;2.37;;;1.50;;
11338;SDS011;5724;42.684;23.252;2023-03-31T02:21:18;3.27;;;1.37;;
11338;SDS011;5724;42.684;23.252;2023-03-31T02:23:44;1.83;;;1.42;;
11338;SDS011;5724;42.684;23.252;2023-03-31T02:26:15;4.40;;;1.90;;
11338;SDS011;5724;42.684;23.252;2023-03-31T02:28:45;2.45;;;1.25;;
11338;SDS011;5724;42.684;23.252;2023-03-31T02:31:23;3.40;;;1.50;;
11338;SDS011;5724;42.684;23.252;2023-03-31T02:33:59;1.92;;;1.33;;
11338;SDS011;5724;42.684;23.252;2023-03-31T02:36:25;1.75;;;1.50;;
11338;SDS011;5724;42.684;23.252;2023-03-31T02:38:53;1.90;;;1.50;;
11338;SDS011;5724;42.684;23.252;2023-03-31T02:41:24;1.88;;;1.70;;
11338;SDS011;5724;42.684;23.252;2023-03-31T02:43:50;1.83;;;1.60;;
11338;SDS011;5724;42.684;23.252;2023-03-31T02:46:15;2.10;;;1.77;;
11338;SDS011;5724;42.684;23.252;2023-03-31T02:48:45;1.70;;;1.60;;
11338;SDS011;5724;42.684;23.252;2023-03-31T03:05:31;1.70;;;1.50;;
11338;SDS011;5724;42.684;23.252;2023-03-31T03:08:32;2.70;;;1.70;;
11338;SDS011;5724;42.684;23.252;2023-03-31T03:16:31;2.30;;;1.80;;
11338;SDS011;5724;42.684;23.252;2023-03-31T03:19:02;2.23;;;2.07;;
11338;SDS011;5724;42.684;23.252;2023-03-31T03:21:30;2.30;;;2.10;;
11338;SDS011;5724;42.684;23.252;2023-03-31T03:23:56;1.70;;;1.60;;
11338;SDS011;5724;42.684;23.252;2023-03-31T03:26:24;2.20;;;1.67;;
11338;SDS011;5724;42.684;23.252;2023-03-31T03:28:55;1.70;;;1.60;;
11338;SDS011;5724;42.684;23.252;2023-03-31T03:31:21;3.40;;;1.80;;
11338;SDS011;5724;42.684;23.252;2023-03-31T03:33:50;2.77;;;1.80;;
11338;SDS011;5724;42.684;23.252;2023-03-31T03:36:17;3.07;;;2.27;;
11338;SDS011;5724;42.684;23.252;2023-03-31T03:38:43;3.97;;;2.20;;
11338;SDS011;5724;42.684;23.252;2023-03-31T03:41:08;3.13;;;2.10;;
11338;SDS011;5724;42.684;23.252;2023-03-31T03:43:34;2.67;;;2.20;;
11338;SDS011;5724;42.684;23.252;2023-03-31T03:46:00;2.95;;;1.70;;
11338;SDS011;5724;42.684;23.252;2023-03-31T03:48:26;2.25;;;1.63;;
11338;SDS011;5724;42.684;23.252;2023-03-31T03:50:51;1.67;;;1.57;;
11338;SDS011;5724;42.684;23.252;2023-03-31T03:53:18;2.10;;;1.83;;
11338;SDS011;5724;42.684;23.252;2023-03-31T03:55:44;3.83;;;1.63;;
11338;SDS011;5724;42.684;23.252;2023-03-31T03:58:13;2.07;;;1.67;;
11338;SDS011;5724;42.684;23.252;2023-03-31T04:00:38;1.80;;;1.70;;
11338;SDS011;5724;42.684;23.252;2023-03-31T04:03:04;3.70;;;2.22;;
11338;SDS011;5724;42.684;23.252;2023-03-31T04:05:29;2.15;;;2.05;;
11338;SDS011;5724;42.684;23.252;2023-03-31T04:07:55;2.03;;;1.83;;
11338;SDS011;5724;42.684;23.252;2023-03-31T04:10:20;5.20;;;2.45;;
11338;SDS011;5724;42.684;23.252;2023-03-31T04:12:46;2.90;;;2.70;;
11338;SDS011;5724;42.684;23.252;2023-03-31T04:15:11;3.58;;;2.50;;
11338;SDS011;5724;42.684;23.252;2023-03-31T04:17:37;3.30;;;3.00;;
11338;SDS011;5724;42.684;23.252;2023-03-31T04:20:03;2.40;;;2.10;;
11338;SDS011;5724;42.684;23.252;2023-03-31T04:22:34;3.43;;;2.73;;
11338;SDS011;5724;42.684;23.252;2023-03-31T04:25:05;4.33;;;3.60;;
11338;SDS011;5724;42.684;23.252;2023-03-31T04:27:34;2.50;;;2.20;;
11338;SDS011;5724;42.684;23.252;2023-03-31T04:30:00;2.93;;;2.10;;
11338;SDS011;5724;42.684;23.252;2023-03-31T04:32:25;2.33;;;2.10;;
11338;SDS011;5724;42.684;23.252;2023-03-31T04:34:52;3.40;;;1.87;;
11338;SDS011;5724;42.684;23.252;2023-03-31T04:37:27;5.73;;;1.90;;
11338;SDS011;5724;42.684;23.252;2023-03-31T04:39:58;2.30;;;2.15;;
11338;SDS011;5724;42.684;23.252;2023-03-31T04:42:33;3.83;;;3.53;;
11338;SDS011;5724;42.684;23.252;2023-03-31T04:45:00;4.40;;;4.00;;
11338;SDS011;5724;42.684;23.252;2023-03-31T04:47:26;5.15;;;4.65;;
11338;SDS011;5724;42.684;23.252;2023-03-31T04:49:51;3.72;;;2.10;;
11338;SDS011;5724;42.684;23.252;2023-03-31T04:52:17;2.63;;;1.75;;
11338;SDS011;5724;42.684;23.252;2023-03-31T04:54:42;2.20;;;2.00;;
11338;SDS011;5724;42.684;23.252;2023-03-31T04:57:07;3.03;;;1.50;;
11338;SDS011;5724;42.684;23.252;2023-03-31T04:59:33;1.57;;;1.47;;
11338;SDS011;5724;42.684;23.252;2023-03-31T05:01:58;1.70;;;1.60;;
11338;SDS011;5724;42.684;23.252;2023-03-31T05:04:24;2.50;;;1.90;;
11338;SDS011;5724;42.684;23.252;2023-03-31T05:06:49;2.03;;;1.80;;
11338;SDS011;5724;42.684;23.252;2023-03-31T05:09:15;3.05;;;1.33;;
11338;SDS011;5724;42.684;23.252;2023-03-31T05:11:40;1.65;;;1.20;;
11338;SDS011;5724;42.684;23.252;2023-03-31T05:14:06;2.05;;;1.60;;
11338;SDS011;5724;42.684;23.252;2023-03-31T05:16:31;1.55;;;1.45;;
11338;SDS011;5724;42.684;23.252;2023-03-31T05:18:57;1.35;;;1.25;;
11338;SDS011;5724;42.684;23.252;2023-03-31T05:21:22;1.80;;;1.57;;
11338;SDS011;5724;42.684;23.252;2023-03-31T05:23:48;3.30;;;1.80;;
11338;SDS011;5724;42.684;23.252;2023-03-31T05:26:14;2.17;;;1.55;;
11338;SDS011;5724;42.684;23.252;2023-03-31T05:28:40;1.60;;;1.50;;
11338;SDS011;5724;42.684;23.252;2023-03-31T05:31:06;2.05;;;1.85;;
11338;SDS011;5724;42.684;23.252;2023-03-31T05:33:32;2.83;;;1.40;;
11338;SDS011;5724;42.684;23.252;2023-03-31T05:35:58;2.25;;;1.63;;
11338;SDS011;5724;42.684;23.252;2023-03-31T05:38:27;3.25;;;1.75;;
11338;SDS011;5724;42.684;23.252;2023-03-31T05:40:55;1.55;;;1.20;;
11338;SDS011;5724;42.684;23.252;2023-03-31T05:43:21;2.15;;;1.77;;
11338;SDS011;5724;42.684;23.252;2023-03-31T05:45:47;2.45;;;1.50;;
11338;SDS011;5724;42.684;23.252;2023-03-31T05:48:12;2.10;;;1.90;;
11338;SDS011;5724;42.684;23.252;2023-03-31T05:50:37;3.30;;;2.53;;
11338;SDS011;5724;42.684;23.252;2023-03-31T05:53:03;6.30;;;5.28;;
11338;SDS011;5724;42.684;23.252;2023-03-31T05:55:28;3.65;;;3.08;;
11338;SDS011;5724;42.684;23.252;2023-03-31T05:57:54;14.85;;;2.00;;
11338;SDS011;5724;42.684;23.252;2023-03-31T06:00:20;2.75;;;1.52;;
11338;SDS011;5724;42.684;23.252;2023-03-31T06:02:46;2.88;;;1.48;;
11338;SDS011;5724;42.684;23.252;2023-03-31T06:05:11;3.20;;;1.75;;
11338;SDS011;5724;42.684;23.252;2023-03-31T06:07:37;2.25;;;1.40;;
11338;SDS011;5724;42.684;23.252;2023-03-31T06:10:02;1.85;;;1.75;;
11338;SDS011;5724;42.684;23.252;2023-03-31T06:12:28;4.72;;;1.80;;
11338;SDS011;5724;42.684;23.252;2023-03-31T06:14:53;4.25;;;2.38;;
11338;SDS011;5724;42.684;23.252;2023-03-31T06:17:19;1.60;;;1.50;;
11338;SDS011;5724;42.684;23.252;2023-03-31T06:19:45;3.63;;;1.90;;
11338;SDS011;5724;42.684;23.252;2023-03-31T06:22:10;2.70;;;1.92;;
11338;SDS011;5724;42.684;23.252;2023-03-31T06:24:35;2.00;;;1.80;;
11338;SDS011;5724;42.684;23.252;2023-03-31T06:27:01;3.60;;;1.95;;
11338;SDS011;5724;42.684;23.252;2023-03-31T06:29:27;1.70;;;1.55;;
11338;SDS011;5724;42.684;23.252;2023-03-31T06:31:53;3.65;;;1.90;;
11338;SDS011;5724;42.684;23.252;2023-03-31T06:34:18;4.32;;;2.00;;
11338;SDS011;5724;42.684;23.252;2023-03-31T06:36:44;2.22;;;1.98;;
11338;SDS011;5724;42.684;23.252;2023-03-31T06:39:09;4.90;;;1.75;;
11338;SDS011;5724;42.684;23.252;2023-03-31T06:41:35;3.53;;;2.08;;
11338;SDS011;5724;42.684;23.252;2023-03-31T06:44:01;2.97;;;2.30;;
11338;SDS011;5724;42.684;23.252;2023-03-31T06:46:26;4.78;;;1.90;;
11338;SDS011;5724;42.684;23.252;2023-03-31T06:48:52;4.60;;;1.98;;
11338;SDS011;5724;42.684;23.252;2023-03-31T06:51:18;5.68;;;2.60;;
11338;SDS011;5724;42.684;23.252;2023-03-31T06:53:44;3.28;;;1.58;;
11338;SDS011;5724;42.684;23.252;2023-03-31T06:56:09;3.22;;;2.28;;
11338;SDS011;5724;42.684;23.252;2023-03-31T06:58:35;2.33;;;2.13;;
11338;SDS011;5724;42.684;23.252;2023-03-31T07:01:01;3.80;;;2.42;;
11338;SDS011;5724;42.684;23.252;2023-03-31T07:03:27;2.35;;;1.70;;
11338;SDS011;5724;42.684;23.252;2023-03-31T07:05:53;2.90;;;2.00;;
11338;SDS011;5724;42.684;23.252;2023-03-31T07:08:20;3.42;;;2.40;;
11338;SDS011;5724;42.684;23.252;2023-03-31T07:10:47;6.10;;;2.20;;
11338;SDS011;5724;42.684;23.252;2023-03-31T07:13:14;2.92;;;2.08;;
11338;SDS011;5724;42.684;23.252;2023-03-31T07:15:41;2.85;;;2.65;;
11338;SDS011;5724;42.684;23.252;2023-03-31T07:18:06;5.65;;;2.10;;
11338;SDS011;5724;42.684;23.252;2023-03-31T07:20:33;3.50;;;2.10;;
11338;SDS011;5724;42.684;23.252;2023-03-31T07:23:01;6.38;;;3.13;;
11338;SDS011;5724;42.684;23.252;2023-03-31T07:25:28;4.93;;;3.05;;
11338;SDS011;5724;42.684;23.252;2023-03-31T07:27:53;5.45;;;3.20;;
11338;SDS011;5724;42.684;23.252;2023-03-31T07:30:19;4.38;;;3.50;;
11338;SDS011;5724;42.684;23.252;2023-03-31T07:32:45;4.15;;;3.40;;
11338;SDS011;5724;42.684;23.252;2023-03-31T07:35:12;3.72;;;3.28;;
11338;SDS011;5724;42.684;23.252;2023-03-31T07:37:39;4.07;;;3.40;;
11338;SDS011;5724;42.684;23.252;2023-03-31T07:40:07;5.95;;;3.28;;
11338;SDS011;5724;42.684;23.252;2023-03-31T07:42:34;3.33;;;2.58;;
11338;SDS011;5724;42.684;23.252;2023-03-31T07:45:00;3.35;;;2.60;;
11338;SDS011;5724;42.684;23.252;2023-03-31T07:47:26;7.40;;;2.80;;
11338;SDS011;5724;42.684;23.252;2023-03-31T07:49:52;6.38;;;2.85;;
11338;SDS011;5724;42.684;23.252;2023-03-31T07:52:18;3.20;;;2.70;;
11338;SDS011;5724;42.684;23.252;2023-03-31T07:54:46;3.25;;;3.00;;
11338;SDS011;5724;42.684;23.252;2023-03-31T07:57:12;7.05;;;2.75;;
11338;SDS011;5724;42.684;23.252;2023-03-31T07:59:41;4.10;;;2.50;;
11338;SDS011;5724;42.684;23.252;2023-03-31T08:02:09;6.35;;;2.42;;
11338;SDS011;5724;42.684;23.252;2023-03-31T08:04:37;6.55;;;3.40;;
11338;SDS011;5724;42.684;23.252;2023-03-31T08:07:02;4.95;;;2.97;;
11338;SDS011;5724;42.684;23.252;2023-03-31T08:09:28;5.63;;;3.03;;
11338;SDS011;5724;42.684;23.252;2023-03-31T08:11:54;5.50;;;2.63;;
11338;SDS011;5724;42.684;23.252;2023-03-31T08:14:19;4.13;;;2.50;;
11338;SDS011;5724;42.684;23.252;2023-03-31T08:16:45;2.92;;;2.40;;
11338;SDS011;5724;42.684;23.252;2023-03-31T08:19:10;5.03;;;3.30;;
11338;SDS011;5724;42.684;23.252;2023-03-31T08:21:36;6.88;;;2.80;;
11338;SDS011;5724;42.684;23.252;2023-03-31T08:24:01;2.85;;;2.65;;
11338;SDS011;5724;42.684;23.252;2023-03-31T08:26:27;7.15;;;2.45;;
11338;SDS011;5724;42.684;23.252;2023-03-31T08:28:52;5.03;;;2.45;;
11338;SDS011;5724;42.684;23.252;2023-03-31T08:31:18;6.13;;;2.40;;
11338;SDS011;5724;42.684;23.252;2023-03-31T08:33:45;3.22;;;2.35;;
11338;SDS011;5724;42.684;23.252;2023-03-31T08:36:12;3.33;;;2.45;;
11338;SDS011;5724;42.684;23.252;2023-03-31T08:38:38;3.20;;;2.20;;
11338;SDS011;5724;42.684;23.252;2023-03-31T08:41:23;5.50;;;2.30;;
11338;SDS011;5724;42.684;23.252;2023-03-31T08:43:50;3.55;;;2.45;;
11338;SDS011;5724;42.684;23.252;2023-03-31T08:46:20;3.60;;;2.20;;
11338;SDS011;5724;42.684;23.252;2023-03-31T08:48:50;3.63;;;2.25;;
11338;SDS011;5724;42.684;23.252;2023-03-31T08:56:32;7.55;;;1.95;;
11338;SDS011;5724;42.684;23.252;2023-03-31T08:59:03;5.80;;;2.30;;
11338;SDS011;5724;42.684;23.252;2023-03-31T09:06:50;2.80;;;2.30;;
11338;SDS011;5724;42.684;23.252;2023-03-31T09:10:01;5.25;;;1.95;;
11338;SDS011;5724;42.684;23.252;2023-03-31T09:12:34;5.05;;;2.30;;
11338;SDS011;5724;42.684;23.252;2023-03-31T09:18:26;4.78;;;2.22;;
11338;SDS011;5724;42.684;23.252;2023-03-31T09:26:40;4.82;;;3.25;;
11338;SDS011;5724;42.684;23.252;2023-03-31T09:34:45;7.25;;;2.55;;
11338;SDS011;5724;42.684;23.252;2023-03-31T09:37:11;2.63;;;2.03;;
11338;SDS011;5724;42.684;23.252;2023-03-31T09:39:38;7.63;;;5.57;;
11338;SDS011;5724;42.684;23.252;2023-03-31T09:42:05;5.32;;;2.75;;
11338;SDS011;5724;42.684;23.252;2023-03-31T09:50:07;3.13;;;1.88;;
11338;SDS011;5724;42.684;23.252;2023-03-31T09:52:42;13.75;;;9.00;;
11338;SDS011;5724;42.684;23.252;2023-03-31T09:55:30;7.60;;;6.82;;
11338;SDS011;5724;42.684;23.252;2023-03-31T09:58:13;4.07;;;2.60;;
11338;SDS011;5724;42.684;23.252;2023-03-31T10:00:40;2.60;;;2.40;;
11338;SDS011;5724;42.684;23.252;2023-03-31T10:03:09;4.03;;;2.15;;
11338;SDS011;5724;42.684;23.252;2023-03-31T10:05:50;3.72;;;1.77;;
11338;SDS011;5724;42.684;23.252;2023-03-31T10:08:30;3.33;;;1.85;;
11338;SDS011;5724;42.684;23.252;2023-03-31T10:13:28;2.35;;;1.90;;
11338;SDS011;5724;42.684;23.252;2023-03-31T10:16:03;3.95;;;1.90;;
11338;SDS011;5724;42.684;23.252;2023-03-31T10:18:39;4.80;;;2.05;;
11338;SDS011;5724;42.684;23.252;2023-03-31T10:21:07;6.20;;;4.30;;
11338;SDS011;5724;42.684;23.252;2023-03-31T10:23:47;3.53;;;2.40;;
11338;SDS011;5724;42.684;23.252;2023-03-31T10:26:16;2.05;;;1.60;;
11338;SDS011;5724;42.684;23.252;2023-03-31T10:28:47;4.85;;;1.90;;
11338;SDS011;5724;42.684;23.252;2023-03-31T10:31:16;3.55;;;2.20;;
11338;SDS011;5724;42.684;23.252;2023-03-31T10:33:44;3.42;;;1.75;;
11338;SDS011;5724;42.684;23.252;2023-03-31T10:36:17;1.77;;;1.67;;
11338;SDS011;5724;42.684;23.252;2023-03-31T10:38:49;5.05;;;2.20;;
11338;SDS011;5724;42.684;23.252;2023-03-31T10:41:34;1.77;;;1.65;;
11338;SDS011;5724;42.684;23.252;2023-03-31T10:44:01;5.13;;;2.30;;
11338;SDS011;5724;42.684;23.252;2023-03-31T10:51:48;4.55;;;3.05;;
11338;SDS011;5724;42.684;23.252;2023-03-31T10:54:17;4.15;;;2.20;;
11338;SDS011;5724;42.684;23.252;2023-03-31T10:57:01;2.55;;;2.35;;
11338;SDS011;5724;42.684;23.252;2023-03-31T11:02:45;2.00;;;1.80;;
11338;SDS011;5724;42.684;23.252;2023-03-31T11:08:29;5.53;;;1.70;;
11338;SDS011;5724;42.684;23.252;2023-03-31T11:11:18;2.78;;;2.03;;
11338;SDS011;5724;42.684;23.252;2023-03-31T11:14:10;5.20;;;2.53;;
11338;SDS011;5724;42.684;23.252;2023-03-31T11:17:19;3.08;;;1.92;;
11338;SDS011;5724;42.684;23.252;2023-03-31T11:22:42;2.17;;;2.08;;
11338;SDS011;5724;42.684;23.252;2023-03-31T11:28:10;2.80;;;1.95;;
11338;SDS011;5724;42.684;23.252;2023-03-31T11:30:42;2.78;;;1.98;;
11338;SDS011;5724;42.684;23.252;2023-03-31T11:36:39;5.00;;;1.80;;
11338;SDS011;5724;42.684;23.252;2023-03-31T11:38:56;10.27;;;2.60;;
11338;SDS011;5724;42.684;23.252;2023-03-31T11:41:35;5.70;;;2.22;;
11338;SDS011;5724;42.684;23.252;2023-03-31T11:44:10;7.40;;;2.20;;
11338;SDS011;5724;42.684;23.252;2023-03-31T11:52:02;7.53;;;2.17;;
11338;SDS011;5724;42.684;23.252;2023-03-31T12:02:45;1.77;;;1.65;;
11338;SDS011;5724;42.684;23.252;2023-03-31T12:05:15;4.38;;;1.90;;
11338;SDS011;5724;42.684;23.252;2023-03-31T12:10:21;2.40;;;1.92;;
11338;SDS011;5724;42.684;23.252;2023-03-31T12:12:57;2.92;;;1.60;;
11338;SDS011;5724;42.684;23.252;2023-03-31T12:15:31;2.30;;;1.80;;
11338;SDS011;5724;42.684;23.252;2023-03-31T12:18:09;4.22;;;1.90;;
11338;SDS011;5724;42.684;23.252;2023-03-31T12:20:40;3.83;;;1.90;;
11338;SDS011;5724;42.684;23.252;2023-03-31T12:23:12;3.65;;;2.13;;
11338;SDS011;5724;42.684;23.252;2023-03-31T12:28:36;6.22;;;2.17;;
11338;SDS011;5724;42.684;23.252;2023-03-31T12:31:05;6.88;;;2.20;;
11338;SDS011;5724;42.684;23.252;2023-03-31T12:36:20;4.18;;;1.77;;
11338;SDS011;5724;42.684;23.252;2023-03-31T12:45:14;5.30;;;1.88;;
11338;SDS011;5724;42.684;23.252;2023-03-31T12:48:04;4.13;;;1.60;;
11338;SDS011;5724;42.684;23.252;2023-03-31T12:59:28;2.58;;;1.77;;
11338;SDS011;5724;42.684;23.252;2023-03-31T13:02:10;3.40;;;2.55;;
11338;SDS011;5724;42.684;23.252;2023-03-31T13:04:45;4.10;;;2.03;;
11338;SDS011;5724;42.684;23.252;2023-03-31T13:09:45;4.80;;;1.90;;
11338;SDS011;5724;42.684;23.252;2023-03-31T13:12:18;3.47;;;2.20;;
11338;SDS011;5724;42.684;23.252;2023-03-31T13:14:47;4.78;;;2.05;;
11338;SDS011;5724;42.684;23.252;2023-03-31T13:17:29;4.10;;;2.20;;
11338;SDS011;5724;42.684;23.252;2023-03-31T13:19:56;2.33;;;2.10;;
11338;SDS011;5724;42.684;23.252;2023-03-31T13:22:40;4.43;;;1.83;;
11338;SDS011;5724;42.684;23.252;2023-03-31T13:25:32;4.00;;;1.80;;
11338;SDS011;5724;42.684;23.252;2023-03-31T13:28:09;2.97;;;2.03;;
11338;SDS011;5724;42.684;23.252;2023-03-31T13:31:04;3.55;;;1.70;;
11338;SDS011;5724;42.684;23.252;2023-03-31T13:33:36;5.95;;;2.40;;
11338;SDS011;5724;42.684;23.252;2023-03-31T13:41:40;5.50;;;2.10;;
11338;SDS011;5724;42.684;23.252;2023-03-31T13:49:43;3.72;;;2.20;;
11338;SDS011;5724;42.684;23.252;2023-03-31T13:52:35;2.85;;;1.90;;
11338;SDS011;5724;42.684;23.252;2023-03-31T13:58:36;5.40;;;2.15;;
11338;SDS011;5724;42.684;23.252;2023-03-31T14:09:42;1.70;;;1.60;;
11338;SDS011;5724;42.684;23.252;2023-03-31T14:12:32;3.05;;;1.50;;
11338;SDS011;5724;42.684;23.252;2023-03-31T14:15:00;3.53;;;1.92;;
11338;SDS011;5724;42.684;23.252;2023-03-31T14:17:27;4.22;;;2.03;;
11338;SDS011;5724;42.684;23.252;2023-03-31T14:20:19;3.08;;;1.50;;
11338;SDS011;5724;42.684;23.252;2023-03-31T14:23:02;2.50;;;1.63;;
11338;SDS011;5724;42.684;23.252;2023-03-31T14:34:15;7.70;;;2.17;;
11338;SDS011;5724;42.684;23.252;2023-03-31T14:39:22;6.25;;;1.70;;
11338;SDS011;5724;42.684;23.252;2023-03-31T14:41:55;2.60;;;1.83;;
11338;SDS011;5724;42.684;23.252;2023-03-31T14:44:25;7.60;;;2.83;;
11338;SDS011;5724;42.684;23.252;2023-03-31T14:46:51;1.95;;;1.65;;
11338;SDS011;5724;42.684;23.252;2023-03-31T14:51:53;2.40;;;1.95;;
11338;SDS011;5724;42.684;23.252;2023-03-31T14:54:23;7.78;;;2.03;;
11338;SDS011;5724;42.684;23.252;2023-03-31T14:56:49;2.65;;;1.92;;
11338;SDS011;5724;42.684;23.252;2023-03-31T14:59:22;3.30;;;1.88;;
11338;SDS011;5724;42.684;23.252;2023-03-31T15:01:51;3.67;;;1.98;;
11338;SDS011;5724;42.684;23.252;2023-03-31T15:04:21;2.70;;;1.67;;
11338;SDS011;5724;42.684;23.252;2023-03-31T15:06:49;3.75;;;1.88;;
11338;SDS011;5724;42.684;23.252;2023-03-31T15:09:21;2.67;;;1.60;;
11338;SDS011;5724;42.684;23.252;2023-03-31T15:11:56;3.50;;;2.05;;
11338;SDS011;5724;42.684;23.252;2023-03-31T15:14:27;4.90;;;2.22;;
11338;SDS011;5724;42.684;23.252;2023-03-31T15:16:55;1.63;;;1.52;;
11338;SDS011;5724;42.684;23.252;2023-03-31T15:19:25;2.47;;;2.13;;
11338;SDS011;5724;42.684;23.252;2023-03-31T15:24:43;2.88;;;1.85;;
11338;SDS011;5724;42.684;23.252;2023-03-31T15:27:20;7.03;;;2.03;;
11338;SDS011;5724;42.684;23.252;2023-03-31T15:29:47;4.53;;;1.92;;
11338;SDS011;5724;42.684;23.252;2023-03-31T15:32:22;3.38;;;1.75;;
11338;SDS011;5724;42.684;23.252;2023-03-31T15:34:49;5.50;;;2.40;;
11338;SDS011;5724;42.684;23.252;2023-03-31T15:37:15;5.57;;;2.08;;
11338;SDS011;5724;42.684;23.252;2023-03-31T15:39:45;7.78;;;2.67;;
11338;SDS011;5724;42.684;23.252;2023-03-31T15:42:12;7.10;;;2.53;;
11338;SDS011;5724;42.684;23.252;2023-03-31T15:44:45;7.03;;;3.28;;
11338;SDS011;5724;42.684;23.252;2023-03-31T15:47:18;4.10;;;2.40;;
11338;SDS011;5724;42.684;23.252;2023-03-31T15:52:21;5.53;;;2.28;;
11338;SDS011;5724;42.684;23.252;2023-03-31T15:54:51;3.75;;;2.30;;
11338;SDS011;5724;42.684;23.252;2023-03-31T15:57:17;3.95;;;2.28;;
11338;SDS011;5724;42.684;23.252;2023-03-31T16:02:15;3.10;;;2.00;;
11338;SDS011;5724;42.684;23.252;2023-03-31T16:04:46;3.17;;;2.40;;
11338;SDS011;5724;42.684;23.252;2023-03-31T16:07:15;2.42;;;2.08;;
11338;SDS011;5724;42.684;23.252;2023-03-31T16:09:52;2.50;;;2.22;;
11338;SDS011;5724;42.684;23.252;2023-03-31T16:12:32;3.30;;;2.10;;
11338;SDS011;5724;42.684;23.252;2023-03-31T16:17:44;9.02;;;3.83;;
11338;SDS011;5724;42.684;23.252;2023-03-31T16:20:16;3.33;;;2.50;;
11338;SDS011;5724;42.684;23.252;2023-03-31T16:22:44;5.85;;;2.20;;
11338;SDS011;5724;42.684;23.252;2023-03-31T16:25:17;5.25;;;2.58;;
11338;SDS011;5724;42.684;23.252;2023-03-31T16:27:46;3.55;;;2.10;;
11338;SDS011;5724;42.684;23.252;2023-03-31T16:30:18;4.57;;;2.03;;
11338;SDS011;5724;42.684;23.252;2023-03-31T16:35:38;2.65;;;2.28;;
11338;SDS011;5724;42.684;23.252;2023-03-31T16:38:06;8.98;;;2.55;;
11338;SDS011;5724;42.684;23.252;2023-03-31T16:40:36;2.42;;;2.08;;
11338;SDS011;5724;42.684;23.252;2023-03-31T16:43:14;8.48;;;4.40;;
11338;SDS011;5724;42.684;23.252;2023-03-31T16:45:51;6.13;;;3.45;;
11338;SDS011;5724;42.684;23.252;2023-03-31T16:48:21;4.07;;;3.65;;
11338;SDS011;5724;42.684;23.252;2023-03-31T16:50:49;7.65;;;4.00;;
11338;SDS011;5724;42.684;23.252;2023-03-31T16:53:18;7.93;;;3.70;;
11338;SDS011;5724;42.684;23.252;2023-03-31T16:55:46;6.85;;;4.60;;
11338;SDS011;5724;42.684;23.252;2023-03-31T16:58:12;8.35;;;5.00;;
11338;SDS011;5724;42.684;23.252;2023-03-31T17:00:38;9.30;;;4.93;;
11338;SDS011;5724;42.684;23.252;2023-03-31T17:03:05;15.23;;;9.15;;
11338;SDS011;5724;42.684;23.252;2023-03-31T17:05:32;12.40;;;8.82;;
11338;SDS011;5724;42.684;23.252;2023-03-31T17:08:02;11.20;;;7.70;;
11338;SDS011;5724;42.684;23.252;2023-03-31T17:10:29;12.25;;;7.85;;
11338;SDS011;5724;42.684;23.252;2023-03-31T17:12:54;11.32;;;8.32;;
11338;SDS011;5724;42.684;23.252;2023-03-31T17:15:20;11.82;;;8.77;;
11338;SDS011;5724;42.684;23.252;2023-03-31T17:17:45;10.18;;;9.10;;
11338;SDS011;5724;42.684;23.252;2023-03-31T17:20:11;12.27;;;7.95;;
11338;SDS011;5724;42.684;23.252;2023-03-31T17:22:37;11.65;;;8.90;;
11338;SDS011;5724;42.684;23.252;2023-03-31T17:25:03;10.52;;;7.72;;
11338;SDS011;5724;42.684;23.252;2023-03-31T17:27:29;9.13;;;6.70;;
11338;SDS011;5724;42.684;23.252;2023-03-31T17:29:56;11.10;;;6.78;;
11338;SDS011;5724;42.684;23.252;2023-03-31T17:32:22;11.30;;;7.88;;
11338;SDS011;5724;42.684;23.252;2023-03-31T17:34:47;9.35;;;8.05;;
11338;SDS011;5724;42.684;23.252;2023-03-31T17:37:14;14.00;;;8.57;;
11338;SDS011;5724;42.684;23.252;2023-03-31T17:39:41;11.02;;;7.43;;
11338;SDS011;5724;42.684;23.252;2023-03-31T17:42:07;9.48;;;6.47;;
11338;SDS011;5724;42.684;23.252;2023-03-31T17:44:33;12.48;;;7.60;;
11338;SDS011;5724;42.684;23.252;2023-03-31T17:46:59;9.40;;;7.90;;
11338;SDS011;5724;42.684;23.252;2023-03-31T17:49:25;8.52;;;6.43;;
11338;SDS011;5724;42.684;23.252;2023-03-31T17:51:51;9.13;;;7.32;;
11338;SDS011;5724;42.684;23.252;2023-03-31T17:54:17;12.63;;;7.68;;
11338;SDS011;5724;42.684;23.252;2023-03-31T17:56:43;8.35;;;6.63;;
11338;SDS011;5724;42.684;23.252;2023-03-31T17:59:09;16.10;;;8.30;;
11338;SDS011;5724;42.684;23.252;2023-03-31T18:01:35;9.70;;;6.60;;
11338;SDS011;5724;42.684;23.252;2023-03-31T18:04:02;9.07;;;4.93;;
11338;SDS011;5724;42.684;23.252;2023-03-31T18:06:27;9.40;;;5.35;;
11338;SDS011;5724;42.684;23.252;2023-03-31T18:08:54;9.63;;;4.72;;
11338;SDS011;5724;42.684;23.252;2023-03-31T18:11:21;6.13;;;3.88;;
11338;SDS011;5724;42.684;23.252;2023-03-31T18:13:47;5.78;;;3.53;;
11338;SDS011;5724;42.684;23.252;2023-03-31T18:16:13;6.05;;;3.67;;
11338;SDS011;5724;42.684;23.252;2023-03-31T18:18:39;8.68;;;4.40;;
11338;SDS011;5724;42.684;23.252;2023-03-31T18:21:06;6.57;;;4.65;;